Prettynama — DH3283 — position and weather

sailwx.info

Track history (hours):
 
Tides and Currents Weather Stations Pressure Air Temp Water Temp Dewpoint Dewpoint Depression Visibility Wind Speed Wind Dir Waves Ship Positions

Prettynama

Last reported at 2017-Sep-10 05:07 UTC. Time now 2017-Sep-21 10:45 UTC.
Position N 47°43' W 003°21'.
Warning: this ship's position is 11 days out of date.

Type: Sailing vessel. MMSI: 211267090.

Date/timePositionNaut miles runAvg speedWind from/ knotsBaromVisibWave heightAir tempDewpointWater temp
2017-Sep-10 05:07N 47°43' W 003°21'0 0.0
2017-Sep-10 04:58N 47°43' W 003°21'0 0.0
2017-Sep-10 04:28N 47°43' W 003°21'0 0.0
2017-Sep-10 03:58N 47°43' W 003°21'0 0.0
2017-Sep-10 03:28N 47°43' W 003°21'0 0.0
2017-Sep-10 02:58N 47°43' W 003°21'0 0.0
2017-Sep-10 02:28N 47°43' W 003°21'0 0.0
2017-Sep-10 01:58N 47°43' W 003°21'0 0.0
2017-Sep-10 01:28N 47°43' W 003°21'0 0.0
2017-Sep-10 00:58N 47°43' W 003°21'0 0.0
2017-Sep-10 00:28N 47°43' W 003°21'0 0.0
2017-Sep-09 23:58N 47°43' W 003°21'0 0.0
2017-Sep-09 23:28N 47°43' W 003°21'0 0.0
2017-Sep-09 22:58N 47°43' W 003°21'0 0.0
2017-Sep-09 22:28N 47°43' W 003°21'0 0.0
2017-Sep-09 21:58N 47°43' W 003°21'0 0.0
2017-Sep-09 21:28N 47°43' W 003°21'0 0.0
2017-Sep-09 20:58N 47°43' W 003°21'0 0.0
2017-Sep-09 20:28N 47°43' W 003°21'0 0.0
2017-Sep-09 19:58N 47°43' W 003°21'0 0.0
2017-Sep-09 19:28N 47°43' W 003°21'0 0.0
2017-Sep-09 18:58N 47°43' W 003°21'0 0.0
2017-Sep-09 18:28N 47°43' W 003°21'0 0.0
2017-Sep-09 17:58N 47°43' W 003°21'0 0.0
2017-Sep-09 17:28N 47°43' W 003°21'0 0.0
2017-Sep-09 16:58N 47°43' W 003°21'0 0.0
2017-Sep-09 16:28N 47°43' W 003°21'0 0.0
2017-Sep-09 15:58N 47°43' W 003°21'0 0.0
2017-Sep-09 15:28N 47°43' W 003°21'1 1.5
2017-Sep-09 15:00N 47°43' W 003°22'2 3.1
2017-Sep-09 14:30N 47°42' W 003°23'3 6.0
2017-Sep-09 14:00N 47°39' W 003°26'1 2.2
2017-Sep-09 13:29N 47°39' W 003°27'0 0.0
2017-Sep-09 13:00N 47°39' W 003°27'0 0.0
2017-Sep-09 12:30N 47°39' W 003°27'0 0.3
2017-Sep-09 12:01N 47°39' W 003°27'3 6.1
2017-Sep-09 11:30N 47°41' W 003°30'3 6.6
2017-Sep-09 11:00N 47°41' W 003°35'4 7.2
2017-Sep-09 10:30N 47°41' W 003°41'10 6.4
2017-Sep-09 08:53N 47°44' W 003°55'5 5.8
2017-Sep-09 07:58N 47°48' W 004°01'6 5.6
2017-Sep-09 06:58N 47°52' W 004°07'1 0.8
2017-Sep-09 05:53N 47°53' W 004°07'0 0.0
2017-Sep-07 15:33N 47°53' W 004°07'0 0.0
2017-Sep-07 12:33N 47°53' W 004°07'0 0.0
2017-Sep-07 11:48N 47°53' W 004°07'0 0.0
2017-Sep-07 10:48N 47°53' W 004°07'0 0.0
2017-Sep-07 07:48N 47°53' W 004°07'0 0.0
2017-Sep-06 14:33N 47°53' W 004°07'0 0.0
2017-Sep-06 13:48N 47°53' W 004°07'0 0.0
2017-Sep-06 12:33N 47°53' W 004°07'0 0.0
2017-Sep-06 11:48N 47°53' W 004°07'0 0.0
2017-Sep-06 10:48N 47°53' W 004°07'0 0.0
2017-Sep-06 09:48N 47°53' W 004°07'0 0.0
2017-Sep-06 08:48N 47°53' W 004°07'0 0.0
2017-Sep-06 06:33N 47°53' W 004°07'0 0.0
2017-Sep-06 05:33N 47°53' W 004°07'0 0.0
2017-Sep-06 03:48N 47°53' W 004°07'0 0.0
2017-Sep-06 02:48N 47°53' W 004°07'0 0.0
2017-Sep-05 23:33N 47°53' W 004°07'0 0.0
2017-Sep-05 21:34N 47°53' W 004°07'0 0.0
2017-Sep-05 17:53N 47°53' W 004°07'0 0.0
2017-Sep-05 15:38N 47°53' W 004°07'0 0.0
2017-Sep-05 14:53N 47°53' W 004°07'0 0.0
2017-Sep-05 13:53N 47°53' W 004°07'0 0.0
2017-Sep-05 12:38N 47°53' W 004°07'0 0.0
2017-Sep-05 08:38N 47°53' W 004°07'0 0.0
2017-Sep-05 07:38N 47°53' W 004°07'0 0.0
2017-Sep-05 06:43N 47°53' W 004°07'0 0.0
2017-Sep-04 17:53N 47°53' W 004°07'0 0.0
2017-Sep-04 16:53N 47°53' W 004°07'0 0.0
2017-Sep-04 14:54N 47°53' W 004°07'0 0.0
2017-Sep-04 13:38N 47°53' W 004°07'0 0.0
2017-Sep-04 12:54N 47°53' W 004°07'0 0.0
2017-Sep-04 09:53N 47°53' W 004°07'0 0.0
2017-Sep-04 08:54N 47°53' W 004°07'0 0.0
2017-Sep-04 06:58N 47°53' W 004°07'0 0.0
2017-Sep-04 05:59N 47°53' W 004°07'2 0.0
2017-Sep-02 16:58N 47°51' W 004°06'7 6.6
2017-Sep-02 15:53N 47°45' W 003°60'2 0.8
2017-Sep-02 13:43N 47°44' W 003°60'3 3.8
2017-Sep-02 12:53N 47°46' W 004°02'6 6.3
2017-Sep-02 11:58N 47°51' W 004°07'  
Track history (hours):
 
Tides and Currents Weather Stations Pressure Air Temp Water Temp Dewpoint Dewpoint Depression Visibility Wind Speed Wind Dir Waves Ship Positions

Prettynama

Last reported at 2017-Sep-10 05:07 UTC. Time now 2017-Sep-21 10:45 UTC.
Position N 47°43' W 003°21'.
Warning: this ship's position is 11 days out of date.

Type: Sailing vessel. MMSI: 211267090.

Date/timePositionNaut miles runAvg speedWind from/ knotsBaromVisibWave heightAir tempDewpointWater temp
2017-Sep-10 05:07N 47°43' W 003°21'0 0.0
2017-Sep-10 04:58N 47°43' W 003°21'0 0.0
2017-Sep-10 04:28N 47°43' W 003°21'0 0.0
2017-Sep-10 03:58N 47°43' W 003°21'0 0.0
2017-Sep-10 03:28N 47°43' W 003°21'0 0.0
2017-Sep-10 02:58N 47°43' W 003°21'0 0.0
2017-Sep-10 02:28N 47°43' W 003°21'0 0.0
2017-Sep-10 01:58N 47°43' W 003°21'0 0.0
2017-Sep-10 01:28N 47°43' W 003°21'0 0.0
2017-Sep-10 00:58N 47°43' W 003°21'0 0.0
2017-Sep-10 00:28N 47°43' W 003°21'0 0.0
2017-Sep-09 23:58N 47°43' W 003°21'0 0.0
2017-Sep-09 23:28N 47°43' W 003°21'0 0.0
2017-Sep-09 22:58N 47°43' W 003°21'0 0.0
2017-Sep-09 22:28N 47°43' W 003°21'0 0.0
2017-Sep-09 21:58N 47°43' W 003°21'0 0.0
2017-Sep-09 21:28N 47°43' W 003°21'0 0.0
2017-Sep-09 20:58N 47°43' W 003°21'0 0.0
2017-Sep-09 20:28N 47°43' W 003°21'0 0.0
2017-Sep-09 19:58N 47°43' W 003°21'0 0.0
2017-Sep-09 19:28N 47°43' W 003°21'0 0.0
2017-Sep-09 18:58N 47°43' W 003°21'0 0.0
2017-Sep-09 18:28N 47°43' W 003°21'0 0.0
2017-Sep-09 17:58N 47°43' W 003°21'0 0.0
2017-Sep-09 17:28N 47°43' W 003°21'0 0.0
2017-Sep-09 16:58N 47°43' W 003°21'0 0.0
2017-Sep-09 16:28N 47°43' W 003°21'0 0.0
2017-Sep-09 15:58N 47°43' W 003°21'0 0.0
2017-Sep-09 15:28N 47°43' W 003°21'1 1.5
2017-Sep-09 15:00N 47°43' W 003°22'2 3.1
2017-Sep-09 14:30N 47°42' W 003°23'3 6.0
2017-Sep-09 14:00N 47°39' W 003°26'1 2.2
2017-Sep-09 13:29N 47°39' W 003°27'0 0.0
2017-Sep-09 13:00N 47°39' W 003°27'0 0.0
2017-Sep-09 12:30N 47°39' W 003°27'0 0.3
2017-Sep-09 12:01N 47°39' W 003°27'3 6.1
2017-Sep-09 11:30N 47°41' W 003°30'3 6.6
2017-Sep-09 11:00N 47°41' W 003°35'4 7.2
2017-Sep-09 10:30N 47°41' W 003°41'10 6.4
2017-Sep-09 08:53N 47°44' W 003°55'5 5.8
2017-Sep-09 07:58N 47°48' W 004°01'6 5.6
2017-Sep-09 06:58N 47°52' W 004°07'1 0.8
2017-Sep-09 05:53N 47°53' W 004°07'0 0.0
2017-Sep-07 15:33N 47°53' W 004°07'0 0.0
2017-Sep-07 12:33N 47°53' W 004°07'0 0.0
2017-Sep-07 11:48N 47°53' W 004°07'0 0.0
2017-Sep-07 10:48N 47°53' W 004°07'0 0.0
2017-Sep-07 07:48N 47°53' W 004°07'0 0.0
2017-Sep-06 14:33N 47°53' W 004°07'0 0.0
2017-Sep-06 13:48N 47°53' W 004°07'0 0.0
2017-Sep-06 12:33N 47°53' W 004°07'0 0.0
2017-Sep-06 11:48N 47°53' W 004°07'0 0.0
2017-Sep-06 10:48N 47°53' W 004°07'0 0.0
2017-Sep-06 09:48N 47°53' W 004°07'0 0.0
2017-Sep-06 08:48N 47°53' W 004°07'0 0.0
2017-Sep-06 06:33N 47°53' W 004°07'0 0.0
2017-Sep-06 05:33N 47°53' W 004°07'0 0.0
2017-Sep-06 03:48N 47°53' W 004°07'0 0.0
2017-Sep-06 02:48N 47°53' W 004°07'0 0.0
2017-Sep-05 23:33N 47°53' W 004°07'0 0.0
2017-Sep-05 21:34N 47°53' W 004°07'0 0.0
2017-Sep-05 17:53N 47°53' W 004°07'0 0.0
2017-Sep-05 15:38N 47°53' W 004°07'0 0.0
2017-Sep-05 14:53N 47°53' W 004°07'0 0.0
2017-Sep-05 13:53N 47°53' W 004°07'0 0.0
2017-Sep-05 12:38N 47°53' W 004°07'0 0.0
2017-Sep-05 08:38N 47°53' W 004°07'0 0.0
2017-Sep-05 07:38N 47°53' W 004°07'0 0.0
2017-Sep-05 06:43N 47°53' W 004°07'0 0.0
2017-Sep-04 17:53N 47°53' W 004°07'0 0.0
2017-Sep-04 16:53N 47°53' W 004°07'0 0.0
2017-Sep-04 14:54N 47°53' W 004°07'0 0.0
2017-Sep-04 13:38N 47°53' W 004°07'0 0.0
2017-Sep-04 12:54N 47°53' W 004°07'0 0.0
2017-Sep-04 09:53N 47°53' W 004°07'0 0.0
2017-Sep-04 08:54N 47°53' W 004°07'0 0.0
2017-Sep-04 06:58N 47°53' W 004°07'0 0.0
2017-Sep-04 05:59N 47°53' W 004°07'2 0.0
2017-Sep-02 16:58N 47°51' W 004°06'7 6.6
2017-Sep-02 15:53N 47°45' W 003°60'2 0.8
2017-Sep-02 13:43N 47°44' W 003°60'3 3.8
2017-Sep-02 12:53N 47°46' W 004°02'6 6.3
2017-Sep-02 11:58N 47°51' W 004°07'  

Dump ship's entire track history